Time;durP1;ratioP1;P1;durP2;ratioP2;P2;SDS_P1;SDS_P2;PMS_P1;PMS_P2;Temp;Humidity;BMP_temperature;BMP_pressure;BME280_temperature;BME280_humidity;BME280_pressure;Samples;Min_cycle;Max_cycle;Signal;HPM_P1;HPM_P2
2022/01/30 00:01:45;;;;;;;19.80;3.75;;;7.20;99.90;;;;;;5002352;28;20048;-77
2022/01/30 00:04:12;;;;;;;22.38;3.40;;;6.50;99.90;;;;;;5013798;28;20065;-76
2022/01/30 00:06:38;;;;;;;24.17;3.72;;;6.80;99.90;;;;;;5005369;28;20050;-78
2022/01/30 00:09:06;;;;;;;19.73;3.55;;;6.60;99.90;;;;;;5025168;28;20147;-75
2022/01/30 00:11:35;;;;;;;25.90;3.33;;;6.70;99.90;;;;;;4987997;28;20124;-78
2022/01/30 00:14:03;;;;;;;24.67;3.70;;;6.60;99.90;;;;;;4997586;28;20113;-80
2022/01/30 00:16:33;;;;;;;22.83;3.47;;;6.90;99.90;;;;;;5016264;28;20402;-77
2022/01/30 00:19:23;;;;;;;27.73;3.60;;;6.70;99.90;;;;;;5004138;28;20052;-77
2022/01/30 00:21:52;;;;;;;14.88;2.17;;;6.80;99.90;;;;;;5026891;28;20052;-78
2022/01/30 00:24:32;;;;;;;22.70;3.10;;;7.10;99.90;;;;;;5015122;28;20041;-77
2022/01/30 00:26:58;;;;;;;23.98;3.05;;;6.70;99.90;;;;;;5021232;28;20052;-77
2022/01/30 00:29:24;;;;;;;22.88;3.80;;;6.70;99.90;;;;;;5001196;28;20046;-77
2022/01/30 00:31:50;;;;;;;19.25;3.03;;;6.90;99.90;;;;;;4972345;28;20046;-78
2022/01/30 00:34:15;;;;;;;15.35;2.60;;;6.60;99.90;;;;;;5004742;28;20042;-78
2022/01/30 00:36:41;;;;;;;14.15;2.22;;;6.60;99.90;;;;;;5010630;28;20764;-78
2022/01/30 00:39:09;;;;;;;20.08;2.60;;;6.90;99.90;;;;;;5015636;28;20481;-76
2022/01/30 00:41:35;;;;;;;15.95;3.13;;;6.50;99.90;;;;;;4996133;28;20097;-77
2022/01/30 00:44:01;;;;;;;16.08;2.28;;;6.90;99.90;;;;;;4984635;28;20124;-78
2022/01/30 00:46:26;;;;;;;21.42;2.25;;;6.80;99.90;;;;;;5017298;28;20060;-76
2022/01/30 00:48:52;;;;;;;13.07;2.40;;;6.50;99.90;;;;;;4998060;28;20517;-78
2022/01/30 00:51:18;;;;;;;17.40;2.45;;;6.40;99.90;;;;;;5002967;28;20046;-77
2022/01/30 00:53:44;;;;;;;9.38;1.85;;;6.50;99.90;;;;;;5009817;28;20108;-77
2022/01/30 00:56:10;;;;;;;11.15;2.00;;;6.70;99.90;;;;;;5013990;28;20402;-78
2022/01/30 00:58:36;;;;;;;9.50;1.48;;;6.80;99.90;;;;;;5012208;28;20053;-76
2022/01/30 01:01:02;;;;;;;18.67;2.00;;;6.50;99.90;;;;;;5014329;28;20041;-76
2022/01/30 01:03:28;;;;;;;19.75;3.55;;;7.10;99.90;;;;;;5012655;28;20042;-77
2022/01/30 01:05:53;;;;;;;13.82;2.65;;;6.40;99.90;;;;;;4998484;28;20046;-76
2022/01/30 01:08:30;;;;;;;15.75;2.50;;;6.60;99.90;;;;;;4999924;28;20395;-76
2022/01/30 01:11:11;;;;;;;20.17;3.13;;;6.40;99.90;;;;;;5012352;28;20046;-77
2022/01/30 01:24:10;;;;;;;19.17;2.35;;;6.10;99.90;;;;;;5029168;28;19929;-76
2022/01/30 01:26:37;;;;;;;21.88;2.63;;;6.40;99.90;;;;;;4995927;28;20053;-76
2022/01/30 01:29:04;;;;;;;19.88;3.00;;;6.20;99.90;;;;;;5011188;28;20081;-76
2022/01/30 01:31:30;;;;;;;24.42;3.78;;;6.20;99.90;;;;;;4979600;28;20057;-77
2022/01/30 01:36:39;;;;;;;21.27;3.10;;;6.50;99.90;;;;;;5012111;28;20483;-76
2022/01/30 01:39:05;;;;;;;21.15;3.67;;;6.50;99.90;;;;;;5011787;28;20111;-76
2022/01/30 01:41:33;;;;;;;20.90;2.88;;;6.60;99.90;;;;;;5010431;28;20417;-76
2022/01/30 01:43:59;;;;;;;26.77;3.70;;;6.70;99.90;;;;;;5010583;28;20121;-77
2022/01/30 01:46:33;;;;;;;23.60;3.00;;;6.70;99.90;;;;;;5009820;28;20364;-76
2022/01/30 01:48:59;;;;;;;23.38;3.10;;;7.30;99.90;;;;;;4995444;28;20061;-76
2022/01/30 01:51:29;;;;;;;32.63;3.88;;;6.90;99.90;;;;;;4995191;28;20038;-77
2022/01/30 01:53:58;;;;;;;25.13;4.32;;;6.80;99.90;;;;;;5008933;28;20112;-77
2022/01/30 01:56:26;;;;;;;29.10;3.67;;;6.70;99.90;;;;;;4992476;28;20111;-77
2022/01/30 01:58:52;;;;;;;14.60;2.50;;;6.70;99.90;;;;;;5011156;28;20406;-77
2022/01/30 02:01:17;;;;;;;16.48;3.65;;;6.70;99.90;;;;;;5010868;28;20049;-77
2022/01/30 02:03:44;;;;;;;19.63;3.33;;;6.60;99.90;;;;;;5011865;28;20053;-77
2022/01/30 02:06:14;;;;;;;25.10;3.03;;;6.80;99.90;;;;;;4995215;28;20049;-78
2022/01/30 02:08:47;;;;;;;21.23;3.25;;;7.30;99.90;;;;;;5011631;28;20483;-77
2022/01/30 02:11:36;;;;;;;27.05;4.40;;;6.60;99.90;;;;;;5010914;28;20648;-77
2022/01/30 02:27:35;;;;;;;20.10;3.22;;;6.60;99.90;;;;;;4996232;28;20096;-77
2022/01/30 02:30:14;;;;;;;28.95;4.45;;;6.50;99.90;;;;;;5010847;28;20046;-78
2022/01/30 02:32:41;;;;;;;30.48;4.80;;;6.50;99.90;;;;;;4995291;28;20057;-78
2022/01/30 02:35:08;;;;;;;31.50;4.47;;;6.50;99.90;;;;;;4994403;28;20518;-77
2022/01/30 02:37:34;;;;;;;21.27;3.63;;;6.50;99.90;;;;;;5010637;28;20050;-77
2022/01/30 02:40:00;;;;;;;25.90;3.60;;;6.50;99.90;;;;;;5009368;28;20066;-77
2022/01/30 02:42:31;;;;;;;22.60;3.22;;;6.60;99.90;;;;;;5010047;28;20056;-77
2022/01/30 02:45:00;;;;;;;32.95;4.50;;;6.60;99.90;;;;;;4995361;28;20411;-77
2022/01/30 02:47:40;;;;;;;24.65;3.80;;;7.20;99.90;;;;;;5010746;28;20060;-77
2022/01/30 02:50:20;;;;;;;21.45;3.70;;;6.70;99.90;;;;;;4994151;28;20060;-77
2022/01/30 02:52:55;;;;;;;24.40;3.90;;;6.70;99.90;;;;;;5010461;28;20053;-77
2022/01/30 02:55:21;;;;;;;20.90;2.92;;;6.70;99.90;;;;;;5026457;28;20107;-77
2022/01/30 02:57:47;;;;;;;24.55;3.58;;;6.70;99.90;;;;;;4994531;28;20045;-77
2022/01/30 03:00:13;;;;;;;27.98;3.38;;;6.70;99.90;;;;;;4977813;28;20128;-77
2022/01/30 03:02:38;;;;;;;28.00;4.03;;;6.60;99.90;;;;;;4994508;28;20060;-77
2022/01/30 03:05:04;;;;;;;23.35;3.72;;;6.60;99.90;;;;;;5010982;28;20430;-76
2022/01/30 03:07:30;;;;;;;25.40;4.32;;;6.60;99.90;;;;;;5010732;28;20057;-76
2022/01/30 03:09:56;;;;;;;26.67;3.70;;;6.70;99.90;;;;;;4991874;28;20042;-75
2022/01/30 03:12:22;;;;;;;30.30;4.45;;;7.00;99.90;;;;;;4996771;28;20570;-76
2022/01/30 03:14:48;;;;;;;31.23;4.15;;;7.10;99.90;;;;;;5014700;28;20049;-76
2022/01/30 03:17:13;;;;;;;28.42;4.72;;;6.70;99.90;;;;;;4998526;28;20052;-76
2022/01/30 03:19:39;;;;;;;33.72;4.85;;;6.80;99.90;;;;;;4997931;28;20049;-76
2022/01/30 03:22:05;;;;;;;23.00;4.28;;;7.00;99.90;;;;;;4998136;28;20394;-76
2022/01/30 03:24:35;;;;;;;31.85;4.80;;;6.80;99.90;;;;;;5014684;28;20095;-77
2022/01/30 03:27:01;;;;;;;30.88;3.92;;;6.80;99.90;;;;;;4998391;28;20058;-76
2022/01/30 03:29:26;;;;;;;29.58;4.95;;;6.90;99.90;;;;;;5013968;28;20837;-75
2022/01/30 03:31:52;;;;;;;31.73;4.45;;;7.20;99.90;;;;;;5014631;28;20050;-77
2022/01/30 03:34:18;;;;;;;33.38;4.68;;;7.10;99.90;;;;;;4980149;28;20042;-76
2022/01/30 03:36:43;;;;;;;34.60;4.85;;;7.10;99.90;;;;;;5013948;28;20426;-77
2022/01/30 03:39:10;;;;;;;34.85;4.53;;;7.30;99.90;;;;;;5013556;28;20046;-76
2022/01/30 03:41:35;;;;;;;24.48;3.90;;;6.90;99.90;;;;;;4981713;28;20062;-76
2022/01/30 03:44:01;;;;;;;31.40;4.60;;;7.10;99.90;;;;;;5013754;28;20045;-76
2022/01/30 03:46:27;;;;;;;27.33;4.00;;;7.00;99.90;;;;;;4998315;28;20057;-76
2022/01/30 03:48:53;;;;;;;30.80;4.25;;;7.40;99.90;;;;;;4980522;28;20077;-76
2022/01/30 03:51:18;;;;;;;28.25;4.30;;;7.00;99.90;;;;;;4997938;28;20042;-76
2022/01/30 03:53:44;;;;;;;30.38;4.03;;;7.30;99.90;;;;;;4997702;28;20192;-76
2022/01/30 03:56:11;;;;;;;37.30;5.10;;;7.00;99.90;;;;;;5014308;28;20042;-76
2022/01/30 03:58:37;;;;;;;36.60;6.32;;;7.10;99.90;;;;;;4997148;28;20046;-76
2022/01/30 04:01:03;;;;;;;26.52;4.60;;;7.00;99.90;;;;;;5014323;28;20053;-76
2022/01/30 04:03:29;;;;;;;34.30;5.07;;;7.00;99.90;;;;;;4997311;28;20419;-76
2022/01/30 04:05:55;;;;;;;41.00;6.03;;;7.00;99.90;;;;;;5014144;28;20069;-75
2022/01/30 04:08:21;;;;;;;38.65;5.30;;;7.00;99.90;;;;;;5013814;28;20522;-76
2022/01/30 04:10:47;;;;;;;30.40;4.78;;;7.00;99.90;;;;;;5013432;28;20515;-76
2022/01/30 04:13:13;;;;;;;43.53;6.03;;;7.00;99.90;;;;;;5014024;28;20528;-75
2022/01/30 04:15:39;;;;;;;34.65;6.00;;;7.00;99.90;;;;;;5013861;28;20088;-75
2022/01/30 04:18:05;;;;;;;33.13;5.13;;;7.00;99.90;;;;;;4996285;28;20081;-75
2022/01/30 04:20:31;;;;;;;31.42;4.68;;;7.00;99.90;;;;;;5012593;28;20453;-76
2022/01/30 04:22:57;;;;;;;32.72;4.88;;;7.10;99.90;;;;;;4996922;28;20046;-75
2022/01/30 04:25:23;;;;;;;36.13;5.20;;;7.20;99.90;;;;;;5013282;28;20044;-75
2022/01/30 04:27:49;;;;;;;32.33;5.50;;;7.10;99.90;;;;;;4997390;28;20200;-75
2022/01/30 04:30:16;;;;;;;44.38;6.32;;;7.10;99.90;;;;;;5006679;28;20505;-76
2022/01/30 04:32:43;;;;;;;34.60;5.30;;;7.10;99.90;;;;;;4995572;28;20073;-76
2022/01/30 04:35:15;;;;;;;33.97;6.15;;;7.10;99.90;;;;;;4981052;28;20045;-76
2022/01/30 05:06:53;;;;;;;27.60;4.60;;;6.50;99.90;;;;;;4996628;28;20107;-76
2022/01/30 05:09:16;;;;;;;36.53;5.65;;;6.60;99.90;;;;;;4984385;28;20410;-77
2022/01/30 05:11:41;;;;;;;37.60;5.15;;;6.60;99.90;;;;;;5012656;28;20041;-77
2022/01/30 05:14:07;;;;;;;27.35;4.70;;;6.60;99.90;;;;;;4996110;28;20128;-76
2022/01/30 05:16:35;;;;;;;27.55;4.38;;;6.70;99.90;;;;;;5012042;28;20061;-76
2022/01/30 05:19:01;;;;;;;38.45;5.70;;;6.70;99.90;;;;;;4979898;28;20129;-76
2022/01/30 05:21:27;;;;;;;26.60;4.72;;;6.60;99.90;;;;;;4995806;28;20113;-76
2022/01/30 05:23:53;;;;;;;33.33;6.40;;;6.60;99.90;;;;;;5010270;28;20042;-77
2022/01/30 05:26:22;;;;;;;36.65;5.80;;;6.70;99.90;;;;;;5012130;28;20065;-76
2022/01/30 05:28:48;;;;;;;38.05;6.10;;;6.70;99.90;;;;;;4995368;28;20046;-76
2022/01/30 05:31:13;;;;;;;39.42;5.68;;;6.70;99.90;;;;;;4995667;28;20056;-77
2022/01/30 05:33:39;;;;;;;41.30;5.95;;;7.20;99.90;;;;;;5011902;28;20077;-77
2022/01/30 05:36:06;;;;;;;41.85;6.68;;;6.70;99.90;;;;;;5002310;28;20389;-77
2022/01/30 05:38:32;;;;;;;39.75;5.53;;;6.60;99.90;;;;;;4995284;28;20053;-77
2022/01/30 05:40:58;;;;;;;30.95;5.10;;;6.60;99.90;;;;;;5011657;28;20061;-77
2022/01/30 05:43:27;;;;;;;24.30;4.38;;;6.50;99.90;;;;;;5011196;28;20045;-77
2022/01/30 05:46:06;;;;;;;39.15;5.13;;;6.40;99.90;;;;;;5010232;28;20046;-77
2022/01/30 05:48:32;;;;;;;37.85;4.90;;;6.60;99.90;;;;;;4995455;28;20054;-78
2022/01/30 05:50:57;;;;;;;34.35;5.72;;;6.20;99.90;;;;;;5011740;28;20410;-77
2022/01/30 05:53:23;;;;;;;40.17;6.18;;;6.10;99.90;;;;;;5011104;28;20046;-78
2022/01/30 05:55:50;;;;;;;46.47;5.97;;;6.40;99.90;;;;;;5011708;28;20053;-79
2022/01/30 05:58:16;;;;;;;51.30;5.72;;;6.20;99.90;;;;;;4995105;28;20052;-78
2022/01/30 06:00:42;;;;;;;38.13;6.20;;;6.00;99.90;;;;;;4994888;28;20053;-78
2022/01/30 06:03:07;;;;;;;36.75;6.10;;;6.10;99.90;;;;;;5011505;28;20498;-78
2022/01/30 06:05:33;;;;;;;36.83;5.45;;;5.90;99.90;;;;;;4995373;28;20136;-78
2022/01/30 06:08:09;;;;;;;33.53;5.65;;;6.40;99.90;;;;;;5011677;28;20050;-78
2022/01/30 06:10:34;;;;;;;32.80;5.00;;;6.60;99.90;;;;;;5010589;28;20133;-78
2022/01/30 06:13:00;;;;;;;35.90;5.50;;;5.90;99.90;;;;;;4979156;28;20141;-76
2022/01/30 06:15:26;;;;;;;46.13;5.45;;;5.80;99.90;;;;;;5011437;28;20046;-76
2022/01/30 06:17:52;;;;;;;45.45;6.05;;;5.80;99.90;;;;;;4973962;28;20050;-77
2022/01/30 06:20:17;;;;;;;45.42;6.20;;;6.60;99.90;;;;;;5004925;28;20038;-77
2022/01/30 06:22:43;;;;;;;43.38;5.45;;;5.80;99.90;;;;;;4978654;28;20050;-76
2022/01/30 06:25:10;;;;;;;42.60;5.72;;;5.70;99.90;;;;;;4994513;28;20505;-77
2022/01/30 06:27:36;;;;;;;46.58;5.70;;;5.90;99.90;;;;;;5011655;28;20177;-77
2022/01/30 06:30:04;;;;;;;44.47;5.88;;;5.80;99.90;;;;;;4994138;28;20313;-76
2022/01/30 06:32:30;;;;;;;43.80;5.43;;;5.80;99.90;;;;;;4994583;28;20073;-76
2022/01/30 06:34:56;;;;;;;35.90;5.40;;;5.90;99.90;;;;;;5011200;28;20038;-76
2022/01/30 06:37:22;;;;;;;45.50;6.05;;;6.50;99.90;;;;;;4994743;28;20046;-76
2022/01/30 06:39:48;;;;;;;38.47;5.70;;;6.40;99.90;;;;;;5010216;28;20116;-78
2022/01/30 06:42:14;;;;;;;42.00;6.47;;;6.00;99.90;;;;;;5011168;28;20510;-77
2022/01/30 06:44:40;;;;;;;56.05;8.13;;;5.90;99.90;;;;;;5010792;28;20483;-77
2022/01/30 06:47:06;;;;;;;37.40;6.78;;;5.90;99.90;;;;;;5006636;28;20038;-78
2022/01/30 06:49:32;;;;;;;41.40;6.72;;;5.80;99.90;;;;;;5024318;28;20473;-78
2022/01/30 06:51:57;;;;;;;55.22;6.85;;;5.90;99.90;;;;;;5010929;28;20096;-78
2022/01/30 06:54:23;;;;;;;32.28;4.80;;;5.90;99.90;;;;;;4993659;28;20081;-78
2022/01/30 06:56:49;;;;;;;32.30;5.47;;;5.90;99.90;;;;;;4994854;28;20034;-77
2022/01/30 06:59:14;;;;;;;26.20;5.03;;;5.90;99.90;;;;;;4993888;28;20096;-78
2022/01/30 07:01:40;;;;;;;31.90;4.38;;;5.90;99.90;;;;;;5010649;28;20461;-77
2022/01/30 07:04:06;;;;;;;32.00;4.85;;;6.00;99.90;;;;;;4994116;28;20104;-77
2022/01/30 07:06:32;;;;;;;28.75;4.28;;;6.00;99.90;;;;;;4994758;28;20077;-77
2022/01/30 07:08:58;;;;;;;29.83;4.60;;;6.00;99.90;;;;;;5010149;28;20084;-77
2022/01/30 07:11:23;;;;;;;27.98;4.15;;;6.50;99.90;;;;;;4992228;28;20046;-77
2022/01/30 07:13:49;;;;;;;30.75;4.50;;;5.90;99.90;;;;;;4993997;28;20136;-78
2022/01/30 07:16:15;;;;;;;24.38;3.90;;;6.10;99.90;;;;;;5010114;28;20452;-77
2022/01/30 07:18:42;;;;;;;30.83;3.92;;;6.20;99.90;;;;;;5025718;28;20054;-76
2022/01/30 07:21:09;;;;;;;27.15;4.80;;;6.90;99.90;;;;;;5010482;28;20495;-77
2022/01/30 07:23:36;;;;;;;24.38;4.05;;;6.00;99.90;;;;;;5010662;28;20068;-77
2022/01/30 07:26:02;;;;;;;24.35;3.70;;;6.00;99.90;;;;;;4990157;28;20136;-76
2022/01/30 07:28:28;;;;;;;20.50;3.50;;;6.00;99.90;;;;;;5004511;28;20111;-76
2022/01/30 07:30:54;;;;;;;26.00;4.38;;;6.00;99.90;;;;;;5010641;28;20397;-76
2022/01/30 07:33:20;;;;;;;26.20;4.88;;;5.90;99.90;;;;;;5010432;28;20053;-77
2022/01/30 07:35:45;;;;;;;31.88;5.35;;;6.40;99.90;;;;;;4980300;28;20050;-77
2022/01/30 07:38:12;;;;;;;30.88;4.35;;;6.00;99.90;;;;;;5005002;28;20403;-76
2022/01/30 07:40:38;;;;;;;27.55;3.90;;;6.20;99.90;;;;;;4993550;28;20430;-76
2022/01/30 07:43:04;;;;;;;25.50;4.68;;;6.10;99.90;;;;;;4977725;28;20053;-76
2022/01/30 07:45:30;;;;;;;25.52;4.13;;;6.10;99.90;;;;;;5010261;28;20483;-76
2022/01/30 07:47:55;;;;;;;31.25;5.30;;;6.20;99.90;;;;;;5010303;28;20049;-76
2022/01/30 07:50:24;;;;;;;29.95;4.68;;;6.20;99.90;;;;;;5010042;28;20057;-78
2022/01/30 07:52:50;;;;;;;26.70;4.25;;;6.20;99.90;;;;;;4994042;28;20491;-75
2022/01/30 07:55:17;;;;;;;34.00;4.97;;;6.70;99.90;;;;;;4993641;28;20053;-75
2022/01/30 07:57:43;;;;;;;35.83;4.50;;;6.30;99.90;;;;;;5009763;28;20041;-76
2022/01/30 08:00:09;;;;;;;31.73;5.18;;;6.40;99.90;;;;;;5011828;28;20069;-77
2022/01/30 08:02:35;;;;;;;42.22;5.60;;;6.30;99.90;;;;;;5016769;28;20120;-77
2022/01/30 08:05:00;;;;;;;37.65;5.60;;;6.40;99.90;;;;;;4999988;28;20180;-77
2022/01/30 08:07:27;;;;;;;37.00;4.97;;;6.40;99.90;;;;;;5011629;28;20053;-76
2022/01/30 08:09:52;;;;;;;31.60;4.88;;;6.40;99.90;;;;;;5015639;28;20529;-76
2022/01/30 08:12:19;;;;;;;27.85;5.00;;;6.40;99.90;;;;;;4984490;28;20132;-76
2022/01/30 08:14:45;;;;;;;37.03;5.47;;;6.70;99.90;;;;;;5007164;28;20514;-76
2022/01/30 08:17:18;;;;;;;23.05;4.90;;;6.50;99.90;;;;;;5014986;28;20045;-76
2022/01/30 08:19:45;;;;;;;40.55;4.70;;;6.50;99.90;;;;;;4966476;28;20132;-76
2022/01/30 08:22:11;;;;;;;41.17;5.50;;;6.60;99.90;;;;;;4980293;28;20092;-75
2022/01/30 08:24:38;;;;;;;25.58;4.97;;;6.60;99.90;;;;;;5015199;28;20046;-77
2022/01/30 08:27:05;;;;;;;37.10;5.43;;;7.10;99.90;;;;;;5021201;28;20046;-77
2022/01/30 08:29:31;;;;;;;32.83;5.35;;;6.80;99.90;;;;;;4996777;28;20046;-76
2022/01/30 08:31:58;;;;;;;38.60;5.35;;;6.80;99.90;;;;;;4997514;28;20049;-76
2022/01/30 08:34:24;;;;;;;39.95;5.82;;;6.80;99.90;;;;;;4997236;28;20053;-76
2022/01/30 08:36:50;;;;;;;42.72;6.10;;;6.80;99.90;;;;;;5013175;28;20045;-76
2022/01/30 08:39:16;;;;;;;45.45;5.78;;;6.90;99.90;;;;;;5012620;28;20046;-76
2022/01/30 08:41:42;;;;;;;38.25;4.90;;;6.80;99.90;;;;;;4995907;28;20057;-76
2022/01/30 08:44:08;;;;;;;33.08;4.65;;;6.70;99.90;;;;;;5009998;28;20462;-76
2022/01/30 08:46:34;;;;;;;38.75;6.15;;;6.70;99.90;;;;;;5020551;28;20059;-76
2022/01/30 08:49:00;;;;;;;38.08;5.78;;;6.60;99.90;;;;;;5018888;28;20415;-76
2022/01/30 08:51:25;;;;;;;39.65;4.72;;;6.60;99.90;;;;;;4981321;28;20413;-76
2022/01/30 08:53:51;;;;;;;28.70;5.32;;;6.60;99.90;;;;;;5012225;28;20046;-76
2022/01/30 08:56:18;;;;;;;37.55;5.63;;;6.60;99.90;;;;;;4997223;28;20363;-76
2022/01/30 08:58:44;;;;;;;28.05;4.88;;;6.70;99.90;;;;;;5012891;28;20050;-76
2022/01/30 09:01:12;;;;;;;25.77;5.03;;;6.70;99.90;;;;;;5009598;28;20050;-75
2022/01/30 09:03:38;;;;;;;31.02;4.45;;;6.80;99.90;;;;;;5011586;28;20042;-76
2022/01/30 09:06:03;;;;;;;32.95;4.60;;;6.80;99.90;;;;;;4995947;28;20064;-76
2022/01/30 09:08:29;;;;;;;30.30;5.38;;;6.90;99.90;;;;;;5018754;28;20092;-76
2022/01/30 09:10:57;;;;;;;31.45;4.57;;;6.90;99.90;;;;;;4997165;28;20469;-75
2022/01/30 09:13:23;;;;;;;33.10;4.88;;;7.00;99.90;;;;;;5012753;28;20082;-76
2022/01/30 09:15:56;;;;;;;36.17;5.95;;;7.00;99.90;;;;;;5015758;28;20046;-76
2022/01/30 09:18:22;;;;;;;32.20;4.72;;;7.00;99.90;;;;;;4998331;28;20046;-75
2022/01/30 09:20:48;;;;;;;42.03;5.30;;;7.30;99.90;;;;;;5014625;28;21352;-75
2022/01/30 09:23:14;;;;;;;35.05;4.35;;;7.10;99.90;;;;;;5010917;28;20049;-76
2022/01/30 09:25:39;;;;;;;38.58;5.32;;;7.10;99.90;;;;;;5004693;28;20081;-76
2022/01/30 09:28:05;;;;;;;35.10;5.03;;;7.20;99.90;;;;;;5012445;28;20077;-76
2022/01/30 09:30:32;;;;;;;31.05;5.10;;;7.30;99.90;;;;;;4984859;28;20045;-76
2022/01/30 09:32:57;;;;;;;36.50;5.15;;;7.40;99.90;;;;;;4997193;28;20053;-76
2022/01/30 09:35:23;;;;;;;38.60;5.40;;;7.50;99.90;;;;;;5012142;28;20050;-76
2022/01/30 09:37:49;;;;;;;33.05;5.82;;;7.60;99.90;;;;;;5011102;28;20042;-76
2022/01/30 09:40:17;;;;;;;37.70;5.22;;;7.60;99.90;;;;;;5003230;28;20086;-75
2022/01/30 09:42:44;;;;;;;30.83;4.63;;;7.60;99.90;;;;;;5019784;28;20053;-76
2022/01/30 09:45:11;;;;;;;40.40;5.68;;;7.60;99.90;;;;;;5011809;28;20042;-76
2022/01/30 09:47:38;;;;;;;35.17;5.65;;;7.60;99.90;;;;;;5011623;28;20054;-78
2022/01/30 09:50:05;;;;;;;38.13;5.30;;;7.50;99.90;;;;;;5011806;28;20045;-77
2022/01/30 09:52:31;;;;;;;37.75;6.15;;;7.40;99.90;;;;;;5011002;28;20431;-82
2022/01/30 09:54:57;;;;;;;31.67;5.07;;;7.50;99.90;;;;;;4999724;28;20154;-82
2022/01/30 09:57:22;;;;;;;31.10;5.10;;;7.70;99.90;;;;;;5011496;28;20046;-80
2022/01/30 09:59:48;;;;;;;35.13;5.78;;;7.80;99.90;;;;;;5011440;28;20041;-78
2022/01/30 10:02:14;;;;;;;39.70;5.57;;;7.70;99.90;;;;;;4994987;28;20042;-82
2022/01/30 10:04:40;;;;;;;32.80;4.43;;;7.90;99.90;;;;;;5027952;28;20046;-77
2022/01/30 10:07:16;;;;;;;36.72;4.65;;;7.80;99.90;;;;;;5012228;28;20049;-85
2022/01/30 10:09:48;;;;;;;33.10;5.28;;;7.80;99.90;;;;;;4995286;28;20046;-79
2022/01/30 10:12:19;;;;;;;;;;;7.90;99.90;;;;;;4995886;28;20180;-80
2022/01/30 10:14:54;;;;;;;36.65;5.47;;;7.90;99.90;;;;;;5010699;28;19925;-80
2022/01/30 10:17:39;;;;;;;34.10;5.43;;;8.00;99.90;;;;;;5010200;28;20049;-80
2022/01/30 10:20:08;;;;;;;40.15;5.25;;;8.10;99.90;;;;;;5011251;28;20034;-81
2022/01/30 10:22:37;;;;;;;41.65;5.88;;;8.20;99.90;;;;;;4994505;28;20050;-80
2022/01/30 10:25:03;;;;;;;33.95;5.40;;;8.10;99.90;;;;;;5011841;28;20390;-80
2022/01/30 10:27:29;;;;;;;40.97;6.55;;;8.20;99.90;;;;;;5011788;28;20081;-81
2022/01/30 10:30:03;;;;;;;31.55;5.75;;;8.20;99.90;;;;;;5010296;28;20042;-80
2022/01/30 10:32:30;;;;;;;35.58;4.47;;;8.20;99.90;;;;;;4995111;28;20049;-81
2022/01/30 10:34:59;;;;;;;43.20;6.35;;;8.30;99.90;;;;;;5011341;28;20479;-82
2022/01/30 10:37:25;;;;;;;34.92;5.60;;;8.40;99.90;;;;;;5011660;28;20046;-81
2022/01/30 10:39:54;;;;;;;33.47;5.35;;;8.40;99.90;;;;;;5011023;28;20159;-81
2022/01/30 10:42:39;;;;;;;34.13;5.50;;;8.50;99.90;;;;;;5011016;28;20064;-81
2022/01/30 10:45:29;;;;;;;35.90;5.05;;;8.60;99.90;;;;;;5010935;28;20049;-80
2022/01/30 10:48:17;;;;;;;27.42;5.10;;;8.50;99.90;;;;;;5004751;28;20054;-79
2022/01/30 10:50:46;;;;;;;28.08;4.80;;;8.50;99.90;;;;;;5010881;28;20054;-80
2022/01/30 10:53:24;;;;;;;35.40;5.30;;;8.50;99.90;;;;;;5011428;28;20038;-80
2022/01/30 10:55:51;;;;;;;33.88;5.72;;;8.40;99.90;;;;;;5009729;28;20046;-80
2022/01/30 10:58:19;;;;;;;38.80;5.47;;;8.40;99.90;;;;;;5009936;28;20405;-79
2022/01/30 11:00:56;;;;;;;35.97;4.88;;;8.40;99.90;;;;;;5009167;28;20060;-76
2022/01/30 11:03:44;;;;;;;33.50;5.78;;;8.40;99.90;;;;;;5009163;28;20061;-76
2022/01/30 11:06:14;;;;;;;36.05;4.82;;;8.40;99.90;;;;;;5010617;28;20041;-76
2022/01/30 11:08:43;;;;;;;31.83;6.25;;;8.50;99.90;;;;;;5008137;28;20151;-76
2022/01/30 11:11:29;;;;;;;29.85;4.22;;;8.70;99.90;;;;;;4994442;28;20136;-76
2022/01/30 11:19:17;;;;;;;25.67;4.50;;;8.70;99.90;;;;;;5010105;28;20061;-75
2022/01/30 11:21:47;;;;;;;32.67;5.03;;;8.80;99.90;;;;;;4993998;28;20136;-75
2022/01/30 11:24:15;;;;;;;31.35;4.65;;;8.80;99.90;;;;;;5009693;28;20056;-76
2022/01/30 11:26:43;;;;;;;31.15;4.85;;;8.90;99.90;;;;;;4994468;28;20136;-75
2022/01/30 11:29:14;;;;;;;39.65;5.45;;;8.90;99.90;;;;;;5010390;28;20049;-75
2022/01/30 11:31:41;;;;;;;30.75;4.55;;;8.90;99.90;;;;;;4994403;28;20042;-75
2022/01/30 11:34:07;;;;;;;37.20;5.30;;;9.00;99.90;;;;;;4997881;28;20042;-76
2022/01/30 11:36:34;;;;;;;27.65;3.88;;;9.00;99.90;;;;;;5014885;28;20502;-76
2022/01/30 11:39:01;;;;;;;31.17;4.65;;;9.00;99.90;;;;;;4980551;28;20084;-75
2022/01/30 11:41:30;;;;;;;32.95;5.13;;;9.10;99.90;;;;;;5010961;28;20064;-75
2022/01/30 11:44:18;;;;;;;36.47;4.82;;;9.20;99.90;;;;;;4999540;28;20513;-75
2022/01/30 11:46:49;;;;;;;33.85;5.43;;;9.20;99.90;;;;;;4998244;28;20053;-76
2022/01/30 11:49:15;;;;;;;35.80;5.45;;;9.20;99.90;;;;;;4997536;28;20084;-75
2022/01/30 11:51:52;;;;;;;34.00;5.35;;;9.40;99.90;;;;;;5014219;28;20446;-75
2022/01/30 11:54:40;;;;;;;30.95;4.75;;;9.50;99.90;;;;;;4997697;28;20054;-75
2022/01/30 11:57:21;;;;;;;29.40;5.15;;;9.60;99.90;;;;;;5014845;28;20120;-75
2022/01/30 11:59:52;;;;;;;32.03;5.00;;;9.60;99.90;;;;;;5029806;28;20048;-75
2022/01/30 12:02:25;;;;;;;30.90;4.83;;;9.70;99.90;;;;;;5013847;28;20389;-75
2022/01/30 12:04:57;;;;;;;35.25;4.88;;;9.90;99.90;;;;;;5013486;28;20045;-75
2022/01/30 12:07:36;;;;;;;;;;;10.10;99.90;;;;;;4992815;28;20045;-77
2022/01/30 12:10:32;;;;;;;35.90;5.00;;;10.10;96.70;;;;;;5013743;28;19921;-77
2022/01/30 12:13:06;;;;;;;27.77;4.35;;;9.80;99.90;;;;;;5022010;28;20064;-76
2022/01/30 12:15:38;;;;;;;31.17;5.32;;;9.50;99.90;;;;;;5013799;28;20498;-78
2022/01/30 12:18:15;;;;;;;34.92;6.18;;;9.20;99.90;;;;;;5013178;28;20611;-75
2022/01/30 12:21:01;;;;;;;22.45;4.03;;;9.10;99.90;;;;;;5012725;28;20048;-75
2022/01/30 12:23:35;;;;;;;38.00;5.53;;;8.80;99.90;;;;;;5007344;28;20034;-74
2022/01/30 12:26:06;;;;;;;32.10;5.30;;;8.70;99.90;;;;;;5013855;28;20498;-75
2022/01/30 12:28:51;;;;;;;30.38;5.15;;;8.90;99.90;;;;;;5013183;28;20038;-78
2022/01/30 12:31:43;;;;;;;27.73;4.75;;;8.60;99.90;;;;;;5017348;28;20378;-80
2022/01/30 12:34:15;;;;;;;29.25;5.03;;;8.40;99.90;;;;;;4999758;28;20061;-78
2022/01/30 12:36:53;;;;;;;33.40;5.15;;;8.80;99.90;;;;;;5013202;28;20096;-76
2022/01/30 12:39:22;;;;;;;28.30;4.70;;;9.30;99.90;;;;;;5012479;28;20056;-76
2022/01/30 12:41:49;;;;;;;32.70;5.45;;;9.60;99.90;;;;;;5018246;28;20061;-76
2022/01/30 12:44:20;;;;;;;35.22;5.88;;;10.10;99.90;;;;;;4996158;28;20050;-76
2022/01/30 12:46:49;;;;;;;20.75;3.50;;;10.10;99.90;;;;;;5013305;28;20060;-75
2022/01/30 12:49:27;;;;;;;33.05;4.82;;;9.80;99.90;;;;;;5004525;28;20120;-75
2022/01/30 12:51:58;;;;;;;27.45;3.50;;;9.70;99.90;;;;;;4983596;28;20125;-77
2022/01/30 12:54:26;;;;;;;24.47;4.13;;;9.70;99.90;;;;;;4996907;28;20085;-77
2022/01/30 12:56:54;;;;;;;27.08;4.75;;;9.70;99.90;;;;;;5014269;28;20045;-76
2022/01/30 12:59:23;;;;;;;27.70;4.93;;;9.80;99.90;;;;;;5015297;28;20116;-82
2022/01/30 13:01:49;;;;;;;29.40;4.75;;;10.40;99.90;;;;;;5002543;28;20049;-78
2022/01/30 13:04:18;;;;;;;28.92;5.15;;;10.40;99.90;;;;;;4994236;28;20042;-75
2022/01/30 13:06:49;;;;;;;24.30;4.53;;;10.20;98.30;;;;;;5012964;28;20049;-77
2022/01/30 13:09:21;;;;;;;30.00;5.13;;;9.90;96.60;;;;;;4996786;28;20108;-77
2022/01/30 13:11:48;;;;;;;19.92;3.72;;;9.70;99.60;;;;;;5012780;28;20050;-75
2022/01/30 13:14:14;;;;;;;22.58;3.80;;;9.20;93.80;;;;;;5012211;28;20056;-76
2022/01/30 13:16:42;;;;;;;28.52;4.22;;;8.90;92.30;;;;;;5012183;28;20042;-76
2022/01/30 13:19:11;;;;;;;21.35;3.83;;;8.80;95.20;;;;;;5013588;28;20077;-78
2022/01/30 13:21:39;;;;;;;35.00;4.75;;;8.60;95.20;;;;;;4996442;28;20085;-77
2022/01/30 13:24:06;;;;;;;25.30;4.40;;;8.60;99.90;;;;;;4996258;28;20055;-78
2022/01/30 13:26:33;;;;;;;27.95;4.00;;;9.20;99.90;;;;;;5012145;28;20046;-73
2022/01/30 13:29:00;;;;;;;29.42;4.10;;;9.50;99.90;;;;;;5011961;28;20046;-73
2022/01/30 13:31:26;;;;;;;19.95;4.20;;;9.90;99.90;;;;;;4979962;28;20046;-74
2022/01/30 13:34:17;;;;;;;18.55;3.45;;;10.50;98.20;;;;;;4995819;28;20188;-74
2022/01/30 13:36:52;;;;;;;24.55;4.07;;;10.70;82.90;;;;;;5011803;28;20089;-74
2022/01/30 13:39:25;;;;;;;27.67;3.80;;;10.90;84.90;;;;;;5011774;28;20050;-74
2022/01/30 13:42:01;;;;;;;35.03;4.40;;;10.80;82.70;;;;;;4996447;28;20066;-74
2022/01/30 13:44:51;;;;;;;27.73;4.22;;;10.60;83.80;;;;;;4997486;28;20061;-74
2022/01/30 13:47:18;;;;;;;26.20;4.10;;;10.30;82.20;;;;;;4995789;28;20077;-74
2022/01/30 13:49:49;;;;;;;23.13;4.65;;;10.30;86.50;;;;;;5011259;28;20554;-74
2022/01/30 13:52:16;;;;;;;22.45;4.45;;;10.40;87.50;;;;;;5011440;28;20494;-74
2022/01/30 13:54:41;;;;;;;26.88;3.75;;;10.70;86.20;;;;;;5011748;28;20046;-74
2022/01/30 13:57:10;;;;;;;21.67;4.15;;;11.30;84.30;;;;;;4994781;28;20089;-74